Terminal Aerodrome Forecast
Issued by NWS Cheyenne, WY

Home | Current Version | Previous Version | Text Only | Print | Product List | Glossary On
Versions: 1 2 3 4 5 6 7 8 9 10 11 12 13 14 15 16 17 18 19 20 21 22 23 24 25 26 27
000
FTUS45 KCYS 041120
TAFCYS
TAF
KCYS 041120Z 0412/0512 15012KT 6SM -SHRA BR SCT007 OVC025
      TEMPO 0412/0413 2SM BR BKN007
     FM041300 16012KT 1SM BR VCSH OVC006
     FM041900 16012G20KT 6SM BR SCT005 OVC015
     FM050300 10008KT 2SM BR OVC004=

USA.gov is the U.S. government's official web portal to all federal, state and local government web resources and services.